sensor_id;sensor_type;location;lat;lon;timestamp;pressure;altitude;pressure_sealevel;temperature;humidity
55576;BME280;41437;45.478;9.116;2023-03-13T00:01:33;99897.16;;;9.79;91.54
55576;BME280;41437;45.478;9.116;2023-03-13T00:04:35;99890.84;;;9.62;92.34
55576;BME280;41437;45.478;9.116;2023-03-13T00:07:36;99907.53;;;9.72;92.21
55576;BME280;41437;45.478;9.116;2023-03-13T00:10:38;99909.69;;;9.70;92.13
55576;BME280;41437;45.478;9.116;2023-03-13T00:13:44;99923.44;;;9.70;92.70
55576;BME280;41437;45.478;9.116;2023-03-13T00:16:46;99926.53;;;9.73;92.79
55576;BME280;41437;45.478;9.116;2023-03-13T00:19:48;99928.78;;;9.76;92.35
55576;BME280;41437;45.478;9.116;2023-03-13T00:22:50;99915.13;;;9.65;93.02
55576;BME280;41437;45.478;9.116;2023-03-13T00:25:55;99917.88;;;9.65;92.78
55576;BME280;41437;45.478;9.116;2023-03-13T00:29:01;99924.97;;;9.61;93.96
55576;BME280;41437;45.478;9.116;2023-03-13T00:32:03;99932.38;;;9.60;93.69
55576;BME280;41437;45.478;9.116;2023-03-13T00:35:05;99932.13;;;9.62;92.97
55576;BME280;41437;45.478;9.116;2023-03-13T00:38:06;99950.88;;;9.65;93.84
55576;BME280;41437;45.478;9.116;2023-03-13T00:41:10;99942.47;;;9.71;93.18
55576;BME280;41437;45.478;9.116;2023-03-13T00:44:13;99949.31;;;9.69;93.42
55576;BME280;41437;45.478;9.116;2023-03-13T00:47:15;99939.63;;;9.66;93.22
55576;BME280;41437;45.478;9.116;2023-03-13T00:50:16;99957.22;;;9.65;94.02
55576;BME280;41437;45.478;9.116;2023-03-13T00:53:18;99952.47;;;9.61;94.10
55576;BME280;41437;45.478;9.116;2023-03-13T00:56:22;99951.50;;;9.67;93.80
55576;BME280;41437;45.478;9.116;2023-03-13T00:59:25;99955.63;;;9.69;93.20
55576;BME280;41437;45.478;9.116;2023-03-13T01:02:27;99949.16;;;9.59;93.85
55576;BME280;41437;45.478;9.116;2023-03-13T01:05:28;99942.22;;;9.56;93.76
55576;BME280;41437;45.478;9.116;2023-03-13T01:08:30;99931.41;;;9.49;94.30
55576;BME280;41437;45.478;9.116;2023-03-13T01:11:34;99947.47;;;9.57;94.06
55576;BME280;41437;45.478;9.116;2023-03-13T01:14:37;99945.97;;;9.67;93.05
55576;BME280;41437;45.478;9.116;2023-03-13T01:17:39;99954.59;;;9.53;93.26
55576;BME280;41437;45.478;9.116;2023-03-13T01:20:40;99959.56;;;9.56;93.52
55576;BME280;41437;45.478;9.116;2023-03-13T01:23:43;99944.22;;;9.61;92.63
55576;BME280;41437;45.478;9.116;2023-03-13T01:26:45;99951.50;;;9.67;92.51
55576;BME280;41437;45.478;9.116;2023-03-13T01:29:48;99941.53;;;9.66;92.47
55576;BME280;41437;45.478;9.116;2023-03-13T01:32:50;99947.31;;;9.64;92.93
55576;BME280;41437;45.478;9.116;2023-03-13T01:35:51;99946.47;;;9.64;92.74
55576;BME280;41437;45.478;9.116;2023-03-13T01:38:54;99945.31;;;9.60;92.29
55576;BME280;41437;45.478;9.116;2023-03-13T01:41:56;99948.13;;;9.65;92.07
55576;BME280;41437;45.478;9.116;2023-03-13T01:44:58;99942.97;;;9.68;92.05
55576;BME280;41437;45.478;9.116;2023-03-13T01:48:00;99947.56;;;9.63;92.35
55576;BME280;41437;45.478;9.116;2023-03-13T01:51:04;99964.91;;;9.63;92.95
55576;BME280;41437;45.478;9.116;2023-03-13T01:54:10;99964.06;;;9.63;92.78
55576;BME280;41437;45.478;9.116;2023-03-13T01:57:16;99939.56;;;9.61;92.17
55576;BME280;41437;45.478;9.116;2023-03-13T02:00:24;99937.13;;;9.65;92.30
55576;BME280;41437;45.478;9.116;2023-03-13T02:03:27;99931.22;;;9.56;92.59
55576;BME280;41437;45.478;9.116;2023-03-13T02:06:30;99929.84;;;9.53;93.56
55576;BME280;41437;45.478;9.116;2023-03-13T02:09:34;99928.13;;;9.52;93.57
55576;BME280;41437;45.478;9.116;2023-03-13T02:12:38;99938.50;;;9.62;93.11
55576;BME280;41437;45.478;9.116;2023-03-13T02:15:41;99941.38;;;9.72;92.48
55576;BME280;41437;45.478;9.116;2023-03-13T02:18:43;99943.72;;;9.64;92.53
55576;BME280;41437;45.478;9.116;2023-03-13T02:21:49;99944.22;;;9.61;92.72
55576;BME280;41437;45.478;9.116;2023-03-13T02:24:58;99946.88;;;9.72;93.33
55576;BME280;41437;45.478;9.116;2023-03-13T02:28:08;99947.97;;;9.71;92.93
55576;BME280;41437;45.478;9.116;2023-03-13T02:31:11;99940.47;;;9.67;92.65
55576;BME280;41437;45.478;9.116;2023-03-13T02:34:14;99932.28;;;9.72;92.45
55576;BME280;41437;45.478;9.116;2023-03-13T02:37:18;99939.19;;;9.74;91.74
55576;BME280;41437;45.478;9.116;2023-03-13T02:40:23;99928.94;;;9.70;92.43
55576;BME280;41437;45.478;9.116;2023-03-13T02:43:30;99926.47;;;9.68;91.75
55576;BME280;41437;45.478;9.116;2023-03-13T02:46:43;99923.88;;;9.62;92.51
55576;BME280;41437;45.478;9.116;2023-03-13T02:49:45;99918.38;;;9.62;92.25
55576;BME280;41437;45.478;9.116;2023-03-13T02:52:48;99914.78;;;9.61;92.37
55576;BME280;41437;45.478;9.116;2023-03-13T02:55:51;99924.31;;;9.53;92.34
55576;BME280;41437;45.478;9.116;2023-03-13T02:58:54;99931.56;;;9.60;92.07
55576;BME280;41437;45.478;9.116;2023-03-13T03:01:56;99937.88;;;9.60;91.83
55576;BME280;41437;45.478;9.116;2023-03-13T03:04:57;99943.66;;;9.59;91.94
55576;BME280;41437;45.478;9.116;2023-03-13T03:07:59;99939.66;;;9.49;92.85
55576;BME280;41437;45.478;9.116;2023-03-13T03:11:01;99938.09;;;9.53;92.41
55576;BME280;41437;45.478;9.116;2023-03-13T03:14:04;99948.22;;;9.53;93.05
55576;BME280;41437;45.478;9.116;2023-03-13T03:17:06;99938.78;;;9.66;92.40
55576;BME280;41437;45.478;9.116;2023-03-13T03:20:08;99950.88;;;9.65;92.19
55576;BME280;41437;45.478;9.116;2023-03-13T03:23:11;99946.97;;;9.61;91.91
55576;BME280;41437;45.478;9.116;2023-03-13T03:26:12;99958.91;;;9.49;92.92
55576;BME280;41437;45.478;9.116;2023-03-13T03:29:15;99947.31;;;9.47;93.53
55576;BME280;41437;45.478;9.116;2023-03-13T03:32:17;99954.31;;;9.38;93.47
55576;BME280;41437;45.478;9.116;2023-03-13T03:35:18;99950.50;;;9.39;93.15
55576;BME280;41437;45.478;9.116;2023-03-13T03:38:20;99951.56;;;9.38;93.47
55576;BME280;41437;45.478;9.116;2023-03-13T03:41:21;99952.06;;;9.35;93.69
55576;BME280;41437;45.478;9.116;2023-03-13T03:44:24;99957.75;;;9.28;94.63
55576;BME280;41437;45.478;9.116;2023-03-13T03:47:26;99973.41;;;9.28;94.39
55576;BME280;41437;45.478;9.116;2023-03-13T03:50:27;99974.91;;;9.19;93.89
55576;BME280;41437;45.478;9.116;2023-03-13T03:53:29;99985.47;;;9.27;93.55
55576;BME280;41437;45.478;9.116;2023-03-13T03:56:31;99978.09;;;9.27;92.66
55576;BME280;41437;45.478;9.116;2023-03-13T03:59:34;99982.09;;;9.37;91.62
55576;BME280;41437;45.478;9.116;2023-03-13T04:02:35;99964.75;;;9.36;91.03
55576;BME280;41437;45.478;9.116;2023-03-13T04:05:37;99979.81;;;9.17;91.73
55576;BME280;41437;45.478;9.116;2023-03-13T04:08:38;99982.41;;;9.23;91.18
55576;BME280;41437;45.478;9.116;2023-03-13T04:11:40;99987.47;;;9.15;91.43
55576;BME280;41437;45.478;9.116;2023-03-13T04:14:43;99987.06;;;9.23;91.24
55576;BME280;41437;45.478;9.116;2023-03-13T04:17:44;99989.09;;;9.27;90.25
55576;BME280;41437;45.478;9.116;2023-03-13T04:20:46;99998.16;;;9.28;90.12
55576;BME280;41437;45.478;9.116;2023-03-13T04:23:47;99994.72;;;9.21;90.28
55576;BME280;41437;45.478;9.116;2023-03-13T04:26:49;99990.53;;;9.18;90.60
55576;BME280;41437;45.478;9.116;2023-03-13T04:29:51;99991.97;;;9.21;89.99
55576;BME280;41437;45.478;9.116;2023-03-13T04:32:53;99986.22;;;9.22;89.22
55576;BME280;41437;45.478;9.116;2023-03-13T04:35:54;99990.41;;;9.25;88.51
55576;BME280;41437;45.478;9.116;2023-03-13T04:38:56;99981.91;;;9.26;88.68
55576;BME280;41437;45.478;9.116;2023-03-13T04:41:57;99975.56;;;9.26;88.03
55576;BME280;41437;45.478;9.116;2023-03-13T04:45:00;99958.41;;;9.19;88.74
55576;BME280;41437;45.478;9.116;2023-03-13T04:48:03;99962.22;;;9.18;87.85
55576;BME280;41437;45.478;9.116;2023-03-13T04:51:04;99965.91;;;9.23;88.52
55576;BME280;41437;45.478;9.116;2023-03-13T04:54:06;99955.16;;;9.22;87.24
55576;BME280;41437;45.478;9.116;2023-03-13T04:57:08;99966.31;;;9.15;87.92
55576;BME280;41437;45.478;9.116;2023-03-13T05:00:12;99986.81;;;9.24;86.37
55576;BME280;41437;45.478;9.116;2023-03-13T05:03:13;99987.06;;;9.23;87.58
55576;BME280;41437;45.478;9.116;2023-03-13T05:06:15;99968.75;;;9.28;85.58
55576;BME280;41437;45.478;9.116;2023-03-13T05:09:16;99990.41;;;9.42;84.78
55576;BME280;41437;45.478;9.116;2023-03-13T05:12:18;99983.91;;;9.31;84.65
55576;BME280;41437;45.478;9.116;2023-03-13T05:15:23;99984.22;;;9.35;84.24
55576;BME280;41437;45.478;9.116;2023-03-13T05:18:25;100011.56;;;9.24;84.53
55576;BME280;41437;45.478;9.116;2023-03-13T05:21:26;99987.72;;;9.13;84.94
55576;BME280;41437;45.478;9.116;2023-03-13T05:24:28;100016.25;;;9.41;83.60
55576;BME280;41437;45.478;9.116;2023-03-13T05:27:29;100019.31;;;9.44;83.08
55576;BME280;41437;45.478;9.116;2023-03-13T05:30:32;99999.56;;;9.30;83.85
55576;BME280;41437;45.478;9.116;2023-03-13T05:33:34;100007.25;;;9.45;83.38
55576;BME280;41437;45.478;9.116;2023-03-13T05:36:35;100004.50;;;9.45;83.14
55576;BME280;41437;45.478;9.116;2023-03-13T05:39:37;99981.41;;;9.29;84.69
55576;BME280;41437;45.478;9.116;2023-03-13T05:42:39;100005.75;;;9.38;85.22
55576;BME280;41437;45.478;9.116;2023-03-13T05:45:41;100006.50;;;9.33;85.46
55576;BME280;41437;45.478;9.116;2023-03-13T05:48:43;99997.00;;;9.24;84.56
55576;BME280;41437;45.478;9.116;2023-03-13T05:51:46;99999.06;;;9.17;84.05
55576;BME280;41437;45.478;9.116;2023-03-13T05:54:50;100011.31;;;9.26;85.10
55576;BME280;41437;45.478;9.116;2023-03-13T05:57:51;99996.72;;;9.25;84.74
55576;BME280;41437;45.478;9.116;2023-03-13T06:00:55;99987.06;;;9.23;84.55
55576;BME280;41437;45.478;9.116;2023-03-13T06:03:57;99995.91;;;9.25;85.36
55576;BME280;41437;45.478;9.116;2023-03-13T06:06:59;100003.75;;;9.33;85.29
55576;BME280;41437;45.478;9.116;2023-03-13T06:10:00;99964.81;;;9.24;85.60
55576;BME280;41437;45.478;9.116;2023-03-13T06:13:02;99976.91;;;9.40;83.95
55576;BME280;41437;45.478;9.116;2023-03-13T06:16:05;99983.47;;;9.39;85.11
55576;BME280;41437;45.478;9.116;2023-03-13T06:19:07;99988.66;;;9.52;85.04
55576;BME280;41437;45.478;9.116;2023-03-13T06:22:08;99989.25;;;9.54;84.18
55576;BME280;41437;45.478;9.116;2023-03-13T06:25:10;99999.16;;;9.55;83.74
55576;BME280;41437;45.478;9.116;2023-03-13T06:28:12;99996.50;;;9.61;83.57
55576;BME280;41437;45.478;9.116;2023-03-13T06:31:15;99991.06;;;9.66;83.87
55576;BME280;41437;45.478;9.116;2023-03-13T06:34:17;99996.97;;;9.74;83.52
55576;BME280;41437;45.478;9.116;2023-03-13T06:37:18;100001.22;;;9.82;82.90
55576;BME280;41437;45.478;9.116;2023-03-13T06:40:20;99991.94;;;9.88;82.72
55576;BME280;41437;45.478;9.116;2023-03-13T06:43:24;99983.06;;;9.81;81.33
55576;BME280;41437;45.478;9.116;2023-03-13T06:46:29;99983.41;;;9.85;81.49
55576;BME280;41437;45.478;9.116;2023-03-13T06:49:30;99990.19;;;9.99;82.58
55576;BME280;41437;45.478;9.116;2023-03-13T06:52:32;100003.25;;;10.08;81.09
55576;BME280;41437;45.478;9.116;2023-03-13T06:55:34;99987.41;;;10.16;80.57
55576;BME280;41437;45.478;9.116;2023-03-13T06:58:35;99984.63;;;10.32;80.27
55576;BME280;41437;45.478;9.116;2023-03-13T07:01:38;99961.56;;;10.39;78.31
55576;BME280;41437;45.478;9.116;2023-03-13T07:04:40;99980.47;;;10.52;76.46
55576;BME280;41437;45.478;9.116;2023-03-13T07:07:42;100017.88;;;10.70;76.54
55576;BME280;41437;45.478;9.116;2023-03-13T07:10:44;100030.03;;;10.74;74.67
55576;BME280;41437;45.478;9.116;2023-03-13T07:13:47;100009.94;;;10.51;75.16
55576;BME280;41437;45.478;9.116;2023-03-13T07:16:53;100037.47;;;10.73;75.63
55576;BME280;41437;45.478;9.116;2023-03-13T07:19:54;100050.03;;;10.86;74.96
55576;BME280;41437;45.478;9.116;2023-03-13T07:22:56;100042.91;;;10.90;75.46
55576;BME280;41437;45.478;9.116;2023-03-13T07:25:59;100065.88;;;11.23;74.67
55576;BME280;41437;45.478;9.116;2023-03-13T07:29:01;100057.41;;;11.29;72.87
55576;BME280;41437;45.478;9.116;2023-03-13T07:32:05;100083.28;;;11.50;71.71
55576;BME280;41437;45.478;9.116;2023-03-13T07:35:07;100055.53;;;11.35;72.81
55576;BME280;41437;45.478;9.116;2023-03-13T07:38:08;100064.63;;;11.63;71.97
55576;BME280;41437;45.478;9.116;2023-03-13T07:41:11;100064.00;;;11.82;70.56
55576;BME280;41437;45.478;9.116;2023-03-13T07:44:13;100050.41;;;11.76;71.03
55576;BME280;41437;45.478;9.116;2023-03-13T07:47:16;100013.09;;;11.73;70.40
55576;BME280;41437;45.478;9.116;2023-03-13T07:50:17;100036.16;;;11.89;71.17
55576;BME280;41437;45.478;9.116;2023-03-13T07:53:20;100051.50;;;12.12;70.43
55576;BME280;41437;45.478;9.116;2023-03-13T07:56:22;100017.41;;;11.91;70.39
55576;BME280;41437;45.478;9.116;2023-03-13T07:59:27;100025.97;;;11.95;69.62
55576;BME280;41437;45.478;9.116;2023-03-13T08:02:30;100045.19;;;12.17;67.86
55576;BME280;41437;45.478;9.116;2023-03-13T08:05:32;100036.34;;;12.15;66.84
55576;BME280;41437;45.478;9.116;2023-03-13T08:08:33;100049.44;;;12.35;64.64
55576;BME280;41437;45.478;9.116;2023-03-13T08:11:38;100053.59;;;12.37;66.13
55576;BME280;41437;45.478;9.116;2023-03-13T08:14:40;100064.22;;;12.61;64.65
55576;BME280;41437;45.478;9.116;2023-03-13T08:17:45;100035.78;;;12.70;62.88
55576;BME280;41437;45.478;9.116;2023-03-13T08:20:47;100041.41;;;12.91;62.85
55576;BME280;41437;45.478;9.116;2023-03-13T08:23:52;100011.81;;;12.91;61.51
55576;BME280;41437;45.478;9.116;2023-03-13T08:26:53;100033.09;;;12.86;62.72
55576;BME280;41437;45.478;9.116;2023-03-13T08:29:55;100016.22;;;12.87;62.34
55576;BME280;41437;45.478;9.116;2023-03-13T08:32:58;100022.56;;;12.77;61.64
55576;BME280;41437;45.478;9.116;2023-03-13T08:36:07;100044.38;;;12.74;62.49
55576;BME280;41437;45.478;9.116;2023-03-13T08:39:11;100021.41;;;12.68;63.58
55576;BME280;41437;45.478;9.116;2023-03-13T08:42:14;100011.69;;;12.61;63.61
55576;BME280;41437;45.478;9.116;2023-03-13T08:45:16;100039.44;;;12.76;63.58
55576;BME280;41437;45.478;9.116;2023-03-13T08:48:19;100046.84;;;12.70;62.22
55576;BME280;41437;45.478;9.116;2023-03-13T08:51:22;100059.03;;;12.74;61.74
55576;BME280;41437;45.478;9.116;2023-03-13T08:54:24;100049.66;;;12.80;60.71
55576;BME280;41437;45.478;9.116;2023-03-13T08:57:25;100056.06;;;12.91;61.27
55576;BME280;41437;45.478;9.116;2023-03-13T09:00:27;100065.78;;;13.09;60.69
55576;BME280;41437;45.478;9.116;2023-03-13T09:03:31;100069.97;;;13.17;59.75
55576;BME280;41437;45.478;9.116;2023-03-13T09:06:33;100055.59;;;13.20;60.64
55576;BME280;41437;45.478;9.116;2023-03-13T09:09:35;100044.88;;;13.49;59.18
55576;BME280;41437;45.478;9.116;2023-03-13T09:12:36;100042.09;;;13.49;58.62
55576;BME280;41437;45.478;9.116;2023-03-13T09:15:38;100063.44;;;13.79;57.86
55576;BME280;41437;45.478;9.116;2023-03-13T09:18:41;100070.63;;;13.80;57.91
55576;BME280;41437;45.478;9.116;2023-03-13T09:21:43;100060.13;;;13.72;58.22
55576;BME280;41437;45.478;9.116;2023-03-13T09:24:45;100042.13;;;13.64;58.28
55576;BME280;41437;45.478;9.116;2023-03-13T09:27:47;100054.28;;;13.58;59.16
55576;BME280;41437;45.478;9.116;2023-03-13T09:30:48;100061.22;;;13.71;59.46
55576;BME280;41437;45.478;9.116;2023-03-13T09:33:52;100067.91;;;13.85;58.82
55576;BME280;41437;45.478;9.116;2023-03-13T09:36:54;100042.94;;;13.80;58.69
55576;BME280;41437;45.478;9.116;2023-03-13T09:39:55;100055.72;;;13.76;59.94
55576;BME280;41437;45.478;9.116;2023-03-13T09:42:59;100025.25;;;13.45;61.55
55576;BME280;41437;45.478;9.116;2023-03-13T09:46:04;100030.75;;;13.35;61.78
55576;BME280;41437;45.478;9.116;2023-03-13T09:49:16;100037.94;;;13.31;62.41
55576;BME280;41437;45.478;9.116;2023-03-13T09:52:22;100059.81;;;13.48;62.14
55576;BME280;41437;45.478;9.116;2023-03-13T09:55:28;100045.41;;;13.41;62.62
55576;BME280;41437;45.478;9.116;2023-03-13T09:58:32;100024.66;;;13.48;61.49
55576;BME280;41437;45.478;9.116;2023-03-13T10:01:35;100029.13;;;13.65;60.65
55576;BME280;41437;45.478;9.116;2023-03-13T10:04:40;100038.53;;;13.74;60.89
55576;BME280;41437;45.478;9.116;2023-03-13T10:07:44;100033.53;;;13.61;60.51
55576;BME280;41437;45.478;9.116;2023-03-13T10:10:48;100045.47;;;13.71;60.82
55576;BME280;41437;45.478;9.116;2023-03-13T10:13:58;100045.47;;;13.76;61.11
55576;BME280;41437;45.478;9.116;2023-03-13T10:17:06;100035.75;;;13.99;58.95
55576;BME280;41437;45.478;9.116;2023-03-13T10:20:20;100041.56;;;14.08;58.06
55576;BME280;41437;45.478;9.116;2023-03-13T10:23:37;100039.28;;;14.30;57.73
55576;BME280;41437;45.478;9.116;2023-03-13T10:26:39;100033.44;;;14.42;56.41
55576;BME280;41437;45.478;9.116;2023-03-13T10:29:41;100030.13;;;14.50;56.51
55576;BME280;41437;45.478;9.116;2023-03-13T10:32:42;100013.03;;;14.07;57.05
55576;BME280;41437;45.478;9.116;2023-03-13T10:35:45;99990.03;;;14.02;58.13
55576;BME280;41437;45.478;9.116;2023-03-13T10:38:59;99992.50;;;14.14;57.21
55576;BME280;41437;45.478;9.116;2023-03-13T10:42:08;99992.19;;;14.30;57.71
55576;BME280;41437;45.478;9.116;2023-03-13T10:45:14;99988.50;;;14.45;56.07
55576;BME280;41437;45.478;9.116;2023-03-13T10:48:19;99977.41;;;14.45;55.40
55576;BME280;41437;45.478;9.116;2023-03-13T10:51:23;99981.19;;;14.75;54.55
55576;BME280;41437;45.478;9.116;2023-03-13T10:54:27;100021.59;;;14.96;52.77
55576;BME280;41437;45.478;9.116;2023-03-13T10:57:30;100008.09;;;14.85;52.34
55576;BME280;41437;45.478;9.116;2023-03-13T11:00:34;99995.56;;;14.87;52.31
55576;BME280;41437;45.478;9.116;2023-03-13T11:03:36;99990.03;;;14.87;51.92
55576;BME280;41437;45.478;9.116;2023-03-13T11:06:39;100002.88;;;14.73;51.62
55576;BME280;41437;45.478;9.116;2023-03-13T11:09:41;100003.22;;;14.56;52.53
55576;BME280;41437;45.478;9.116;2023-03-13T11:12:44;99980.75;;;14.52;53.44
55576;BME280;41437;45.478;9.116;2023-03-13T11:15:48;99983.44;;;14.73;52.85
55576;BME280;41437;45.478;9.116;2023-03-13T11:19:09;99990.34;;;14.80;51.68
55576;BME280;41437;45.478;9.116;2023-03-13T11:22:27;99982.75;;;14.96;51.50
55576;BME280;41437;45.478;9.116;2023-03-13T11:25:33;99968.28;;;15.04;51.08
55576;BME280;41437;45.478;9.116;2023-03-13T11:28:45;99980.16;;;15.10;50.69
55576;BME280;41437;45.478;9.116;2023-03-13T11:31:53;99989.38;;;15.00;51.15
55576;BME280;41437;45.478;9.116;2023-03-13T11:34:58;99953.69;;;14.83;51.69
55576;BME280;41437;45.478;9.116;2023-03-13T11:38:07;99932.34;;;14.84;50.73
55576;BME280;41437;45.478;9.116;2023-03-13T11:41:23;99959.91;;;15.09;51.29
55576;BME280;41437;45.478;9.116;2023-03-13T11:44:39;99957.53;;;14.98;50.98
55576;BME280;41437;45.478;9.116;2023-03-13T11:47:52;99948.63;;;14.96;52.11
55576;BME280;41437;45.478;9.116;2023-03-13T11:51:01;99931.69;;;15.02;51.57
55576;BME280;41437;45.478;9.116;2023-03-13T11:54:27;99938.22;;;15.17;52.07
55576;BME280;41437;45.478;9.116;2023-03-13T11:57:37;99922.72;;;15.11;51.81
55576;BME280;41437;45.478;9.116;2023-03-13T12:00:47;99917.56;;;15.33;51.40
55576;BME280;41437;45.478;9.116;2023-03-13T12:03:55;99914.94;;;15.76;50.82
55576;BME280;41437;45.478;9.116;2023-03-13T12:07:00;99919.34;;;16.06;48.50
55576;BME280;41437;45.478;9.116;2023-03-13T12:10:09;99892.69;;;15.81;48.40
55576;BME280;41437;45.478;9.116;2023-03-13T12:13:16;99923.78;;;15.83;49.43
55576;BME280;41437;45.478;9.116;2023-03-13T12:16:23;99912.63;;;15.59;51.74
55576;BME280;41437;45.478;9.116;2023-03-13T12:19:31;99918.50;;;15.52;50.85
55576;BME280;41437;45.478;9.116;2023-03-13T12:22:35;99911.81;;;15.53;51.71
55576;BME280;41437;45.478;9.116;2023-03-13T12:25:46;99904.25;;;15.64;51.26
55576;BME280;41437;45.478;9.116;2023-03-13T12:28:55;99882.09;;;15.83;50.43
55576;BME280;41437;45.478;9.116;2023-03-13T12:32:03;99872.94;;;15.82;48.47
55576;BME280;41437;45.478;9.116;2023-03-13T12:35:17;99880.69;;;15.56;49.74
55576;BME280;41437;45.478;9.116;2023-03-13T12:38:24;99866.06;;;16.23;59.62
55576;BME280;41437;45.478;9.116;2023-03-13T12:41:31;99851.16;;;16.14;48.41
55576;BME280;41437;45.478;9.116;2023-03-13T12:44:33;99850.25;;;15.99;48.93
55576;BME280;41437;45.478;9.116;2023-03-13T12:47:58;99839.59;;;16.06;48.93
55576;BME280;41437;45.478;9.116;2023-03-13T12:51:27;99856.34;;;16.63;47.33
55576;BME280;41437;45.478;9.116;2023-03-13T12:54:55;99840.47;;;16.45;48.38
55576;BME280;41437;45.478;9.116;2023-03-13T12:58:24;99837.81;;;16.16;48.67
55576;BME280;41437;45.478;9.116;2023-03-13T13:01:31;99821.41;;;16.14;49.48
55576;BME280;41437;45.478;9.116;2023-03-13T13:04:41;99823.53;;;16.41;49.65
55576;BME280;41437;45.478;9.116;2023-03-13T13:07:51;99811.81;;;16.44;49.07
55576;BME280;41437;45.478;9.116;2023-03-13T13:10:53;99823.31;;;16.56;47.43
55576;BME280;41437;45.478;9.116;2023-03-13T13:13:56;99810.63;;;16.50;48.64
55576;BME280;41437;45.478;9.116;2023-03-13T13:17:00;99808.81;;;16.41;48.39
55576;BME280;41437;45.478;9.116;2023-03-13T13:20:40;99809.19;;;16.34;48.94
55576;BME280;41437;45.478;9.116;2023-03-13T13:23:42;99806.75;;;15.90;49.70
55576;BME280;41437;45.478;9.116;2023-03-13T13:26:47;99794.31;;;15.82;49.77
55576;BME280;41437;45.478;9.116;2023-03-13T13:29:57;99804.81;;;15.61;50.86
55576;BME280;41437;45.478;9.116;2023-03-13T13:36:39;99773.25;;;16.00;50.03
55576;BME280;41437;45.478;9.116;2023-03-13T13:39:43;99766.53;;;15.82;51.53
55576;BME280;41437;45.478;9.116;2023-03-13T13:42:49;99767.97;;;15.79;52.02
55576;BME280;41437;45.478;9.116;2023-03-13T13:45:59;99757.28;;;15.63;53.58
55576;BME280;41437;45.478;9.116;2023-03-13T13:49:14;99758.88;;;15.50;53.33
55576;BME280;41437;45.478;9.116;2023-03-13T13:52:38;99758.00;;;15.49;54.12
55576;BME280;41437;45.478;9.116;2023-03-13T13:55:41;99750.09;;;15.62;52.68
55576;BME280;41437;45.478;9.116;2023-03-13T13:58:44;99756.91;;;15.74;52.04
55576;BME280;41437;45.478;9.116;2023-03-13T14:01:49;99748.91;;;15.44;54.97
55576;BME280;41437;45.478;9.116;2023-03-13T14:04:54;99750.16;;;15.56;53.53
55576;BME280;41437;45.478;9.116;2023-03-13T14:07:59;99729.31;;;15.59;54.04
55576;BME280;41437;45.478;9.116;2023-03-13T14:11:07;99728.25;;;15.55;54.48
55576;BME280;41437;45.478;9.116;2023-03-13T14:14:19;99731.47;;;15.67;54.58
55576;BME280;41437;45.478;9.116;2023-03-13T14:17:22;99731.91;;;15.26;54.77
55576;BME280;41437;45.478;9.116;2023-03-13T14:20:28;99720.75;;;15.07;55.75
55576;BME280;41437;45.478;9.116;2023-03-13T14:23:35;99712.34;;;15.13;56.01
55576;BME280;41437;45.478;9.116;2023-03-13T14:26:42;99717.19;;;15.26;56.59
55576;BME280;41437;45.478;9.116;2023-03-13T14:29:58;99711.59;;;15.31;56.18
55576;BME280;41437;45.478;9.116;2023-03-13T14:33:01;99714.13;;;15.27;57.38
55576;BME280;41437;45.478;9.116;2023-03-13T14:36:03;99716.63;;;15.29;57.34
55576;BME280;41437;45.478;9.116;2023-03-13T14:39:05;99715.50;;;15.30;58.41
55576;BME280;41437;45.478;9.116;2023-03-13T14:42:10;99710.66;;;15.17;58.54
55576;BME280;41437;45.478;9.116;2023-03-13T14:45:14;99709.88;;;15.11;59.95
55576;BME280;41437;45.478;9.116;2023-03-13T14:48:20;99706.13;;;14.97;60.94
55576;BME280;41437;45.478;9.116;2023-03-13T14:51:24;99705.53;;;14.76;62.42
55576;BME280;41437;45.478;9.116;2023-03-13T14:54:29;99707.59;;;14.60;62.91
55576;BME280;41437;45.478;9.116;2023-03-13T14:57:32;99709.81;;;14.58;61.57
55576;BME280;41437;45.478;9.116;2023-03-13T15:00:37;99707.34;;;14.56;61.61
55576;BME280;41437;45.478;9.116;2023-03-13T15:03:44;99710.84;;;14.33;64.24
55576;BME280;41437;45.478;9.116;2023-03-13T15:06:46;99705.78;;;14.40;64.37
55576;BME280;41437;45.478;9.116;2023-03-13T15:09:48;99708.28;;;14.42;64.87
55576;BME280;41437;45.478;9.116;2023-03-13T15:12:51;99702.53;;;14.33;65.66
55576;BME280;41437;45.478;9.116;2023-03-13T15:15:53;99701.00;;;14.17;67.21
55576;BME280;41437;45.478;9.116;2023-03-13T15:18:57;99684.44;;;14.06;69.30
55576;BME280;41437;45.478;9.116;2023-03-13T15:21:58;99675.84;;;14.08;71.20
55576;BME280;41437;45.478;9.116;2023-03-13T15:25:00;99668.03;;;14.15;71.05
55576;BME280;41437;45.478;9.116;2023-03-13T15:28:01;99672.81;;;14.04;71.42
55576;BME280;41437;45.478;9.116;2023-03-13T15:31:06;99665.69;;;13.93;72.75
55576;BME280;41437;45.478;9.116;2023-03-13T15:34:11;99665.94;;;13.97;73.23
55576;BME280;41437;45.478;9.116;2023-03-13T15:37:13;99654.84;;;13.97;73.61
55576;BME280;41437;45.478;9.116;2023-03-13T15:40:15;99657.34;;;13.98;74.80
55576;BME280;41437;45.478;9.116;2023-03-13T15:43:19;99651.38;;;13.81;74.68
55576;BME280;41437;45.478;9.116;2023-03-13T15:46:24;99650.91;;;13.69;76.03
55576;BME280;41437;45.478;9.116;2023-03-13T15:49:27;99641.44;;;13.75;76.94
55576;BME280;41437;45.478;9.116;2023-03-13T15:52:30;99627.31;;;13.76;76.29
55576;BME280;41437;45.478;9.116;2023-03-13T15:55:32;99629.69;;;13.88;75.59
55576;BME280;41437;45.478;9.116;2023-03-13T15:58:34;99625.50;;;13.96;74.31
55576;BME280;41437;45.478;9.116;2023-03-13T16:01:35;99629.97;;;13.92;76.00
55576;BME280;41437;45.478;9.116;2023-03-13T16:04:38;99619.22;;;13.85;76.91
55576;BME280;41437;45.478;9.116;2023-03-13T16:07:43;99624.75;;;13.85;77.00
55576;BME280;41437;45.478;9.116;2023-03-13T16:10:45;99613.22;;;13.73;79.53
55576;BME280;41437;45.478;9.116;2023-03-13T16:13:47;99613.84;;;13.60;81.50
55576;BME280;41437;45.478;9.116;2023-03-13T16:16:48;99616.38;;;13.56;82.06
55576;BME280;41437;45.478;9.116;2023-03-13T16:19:53;99611.47;;;13.43;83.66
55576;BME280;41437;45.478;9.116;2023-03-13T16:22:56;99609.84;;;13.37;84.82